TAF and METAR

METAR for Lanzarote Airport

GCRR 192030Z 34017KT 9999 FEW025 23/19 Q1015
Report created 19. okt 22:30
wind 17 knots from NNW (340°) visibility > 10km some clouds (~25% cover) at 2500 feet Temperature 23° with dewpoint at 19° (Humidity 78.24%) Pressure 1015 hPa

TAF for Lanzarote Airport

TAF GCRR 192000Z 1921/2021 02009KT 9999 FEW025 TX26/2014Z TN19/2005Z PROB40 TEMPO 2009/2018 RA
Report created 19. okt 22:00

between 19. okt 23:00 - 20. okt 23:00

wind 9 knots from NNE (020°) visibility > 10km some clouds (~25% cover) at 2500 feet Max temperature 26° expected tomorrow at around 16 o'clock Min temperature 19° expected tomorrow at around 07 o'clock

probably (~40%) temporarily between 20. okt 11:00 - 20. okt 20:00

rain